createdAt,value
2022-10-07T00:03:15.103Z,3.3
2022-10-07T00:08:23.050Z,2.9
2022-10-07T00:13:31.008Z,2.9
2022-10-07T00:18:38.964Z,3.2
2022-10-07T00:23:46.932Z,2.8
2022-10-07T00:28:54.864Z,2.6
2022-10-07T00:34:02.817Z,2.6
2022-10-07T00:39:10.778Z,2.5
2022-10-07T00:44:18.742Z,2.6
2022-10-07T00:49:26.733Z,2.7
2022-10-07T00:59:43.132Z,2.6
2022-10-07T01:04:51.344Z,2.3
2022-10-07T01:09:59.513Z,2.6
2022-10-07T01:15:07.704Z,2.1
2022-10-07T01:20:15.932Z,2.1
2022-10-07T01:25:24.141Z,2.3
2022-10-07T01:30:32.381Z,2.3
2022-10-07T01:35:40.612Z,2.1
2022-10-07T01:40:48.879Z,2.4
2022-10-07T01:45:57.120Z,2.4
2022-10-07T01:51:05.326Z,2.9
2022-10-07T01:56:13.584Z,2.9
2022-10-07T02:01:22.450Z,2.4
2022-10-07T02:06:29.847Z,2.7
2022-10-07T02:11:37.694Z,2.8
2022-10-07T02:16:45.550Z,2.6
2022-10-07T02:21:53.367Z,2.8
2022-10-07T02:27:01.201Z,2.5
2022-10-07T02:32:09.053Z,2.8
2022-10-07T02:37:16.911Z,3.2
2022-10-07T02:42:24.728Z,2.8
2022-10-07T02:47:32.583Z,2.6
2022-10-07T02:57:48.296Z,2.8
2022-10-07T03:02:56.137Z,2.9
2022-10-07T03:08:03.986Z,2.7
2022-10-07T03:13:11.822Z,3.1
2022-10-07T03:18:19.702Z,2.8
2022-10-07T03:23:27.532Z,2.8
2022-10-07T03:28:35.368Z,2.8
2022-10-07T03:33:43.172Z,2.8
2022-10-07T03:38:51.002Z,2.2
2022-10-07T03:43:58.806Z,2.5
2022-10-07T03:49:06.613Z,2.4
2022-10-07T03:54:14.428Z,2.2
2022-10-07T03:59:22.205Z,2.4
2022-10-07T04:04:30.027Z,2.8
2022-10-07T04:09:37.842Z,2.6
2022-10-07T04:14:45.803Z,2.4
2022-10-07T04:19:53.758Z,2.8
2022-10-07T04:25:01.682Z,3
2022-10-07T04:30:09.691Z,2.5
2022-10-07T04:35:17.653Z,2.6
2022-10-07T04:40:25.577Z,2.8
2022-10-07T04:45:33.459Z,2.8
2022-10-07T04:50:41.423Z,2.9
2022-10-07T04:55:49.327Z,2.6
2022-10-07T05:00:57.250Z,2.8
2022-10-07T05:06:05.155Z,2.4
2022-10-07T05:11:13.066Z,2.6
2022-10-07T05:16:21.010Z,2.7
2022-10-07T05:21:29.182Z,2.8
2022-10-07T05:26:37.344Z,2.8
2022-10-07T05:31:45.451Z,2.9
2022-10-07T05:36:53.544Z,2.7
2022-10-07T05:42:01.724Z,3.1
2022-10-07T05:47:09.848Z,2.9
2022-10-07T05:52:18.028Z,3.1
2022-10-07T05:57:26.073Z,3.3
2022-10-07T06:02:34.148Z,3.4
2022-10-07T06:07:42.249Z,3.7
2022-10-07T06:12:50.316Z,4.2
2022-10-07T06:17:58.423Z,4.7
2022-10-07T06:23:06.482Z,5.3
2022-10-07T06:28:15.114Z,5.3
2022-10-07T06:33:22.250Z,5.6
2022-10-07T06:38:29.806Z,6
2022-10-07T06:43:37.363Z,6.9
2022-10-07T06:48:44.847Z,9.8
2022-10-07T06:53:52.336Z,10.2
2022-10-07T06:58:59.783Z,9.8
2022-10-07T07:04:07.126Z,10.1
2022-10-07T07:09:14.480Z,11.2
2022-10-07T07:14:21.806Z,13
2022-10-07T07:19:29.106Z,14
2022-10-07T07:24:36.329Z,14.9
2022-10-07T07:29:43.525Z,15.6
2022-10-07T07:34:50.742Z,15
2022-10-07T07:39:57.881Z,15.8
2022-10-07T07:45:05.018Z,17.1
2022-10-07T07:50:12.132Z,16.4
2022-10-07T07:55:19.194Z,16.8
2022-10-07T08:00:26.238Z,16.4
2022-10-07T08:05:33.258Z,17.1
2022-10-07T08:10:40.277Z,18.7
2022-10-07T08:20:54.252Z,17.6
2022-10-07T08:26:01.276Z,19.8
2022-10-07T08:31:08.260Z,20.4
2022-10-07T08:36:15.232Z,18.9
2022-10-07T08:41:22.246Z,20.1
2022-10-07T08:46:29.289Z,20.6
2022-10-07T08:51:36.346Z,21.1
2022-10-07T08:56:43.362Z,20.4
2022-10-07T09:01:50.373Z,18.9
2022-10-07T09:06:57.370Z,20.7
2022-10-07T09:12:04.365Z,19.7
2022-10-07T09:17:11.295Z,20.4
2022-10-07T09:22:18.234Z,20.3
2022-10-07T09:27:25.162Z,20
2022-10-07T09:32:32.120Z,20.2
2022-10-07T09:37:39.225Z,19.6
2022-10-07T09:42:46.014Z,21.6
2022-10-07T09:47:53.079Z,19.2
2022-10-07T09:53:00.135Z,20.5
2022-10-07T09:58:07.204Z,20
2022-10-07T10:03:14.347Z,22.4
2022-10-07T10:08:21.281Z,19.6
2022-10-07T10:13:28.332Z,20
2022-10-07T10:18:35.365Z,20
2022-10-07T10:23:42.400Z,20.6
2022-10-07T10:28:49.444Z,20.4
2022-10-07T10:33:56.449Z,19.7
2022-10-07T10:39:03.472Z,21.2
2022-10-07T10:44:10.413Z,20.3
2022-10-07T10:49:17.411Z,21.7
2022-10-07T10:54:24.696Z,19.6
2022-10-07T10:59:32.096Z,21.1
2022-10-07T11:04:39.162Z,21.3
2022-10-07T11:09:46.359Z,22.5
2022-10-07T11:14:53.575Z,21.8
2022-10-07T11:20:00.833Z,21.3
2022-10-07T11:25:08.012Z,23.4
2022-10-07T11:30:15.238Z,19.9
2022-10-07T11:35:22.443Z,19.9
2022-10-07T11:40:29.637Z,22.3
2022-10-07T11:45:36.832Z,21.7
2022-10-07T11:50:44.006Z,21.3
2022-10-07T11:55:51.213Z,22.4
2022-10-07T12:00:59.036Z,22.1
2022-10-07T12:06:05.358Z,21.7
2022-10-07T12:11:12.165Z,23.6
2022-10-07T12:16:18.963Z,21.2
2022-10-07T12:21:25.737Z,20.8
2022-10-07T12:26:32.516Z,21.7
2022-10-07T12:31:39.320Z,21.5
2022-10-07T12:36:46.148Z,20.6
2022-10-07T12:41:52.875Z,21.4
2022-10-07T12:46:59.674Z,21.6
2022-10-07T12:52:06.405Z,22.4
2022-10-07T12:57:13.208Z,21.1
2022-10-07T13:02:20.040Z,22
2022-10-07T13:07:26.761Z,22.8
2022-10-07T13:12:33.483Z,22.4
2022-10-07T13:17:40.210Z,22
2022-10-07T13:22:46.887Z,24.1
2022-10-07T13:27:53.571Z,21.8
2022-10-07T13:33:00.279Z,22.4
2022-10-07T13:38:06.923Z,21.4
2022-10-07T13:43:13.574Z,21.2
2022-10-07T13:48:20.230Z,21.5
2022-10-07T13:53:26.857Z,23.3
2022-10-07T13:58:33.512Z,22.7
2022-10-07T14:03:40.091Z,23.6
2022-10-07T14:08:46.717Z,26
2022-10-07T14:13:53.409Z,22.2
2022-10-07T14:19:00.084Z,21.9
2022-10-07T14:24:06.797Z,20.1
2022-10-07T14:29:13.578Z,18.1
2022-10-07T14:34:20.450Z,20.3
2022-10-07T14:39:27.283Z,20.7
2022-10-07T14:44:34.121Z,20.9
2022-10-07T14:49:41.007Z,18.4
2022-10-07T14:54:47.913Z,17.6
2022-10-07T14:59:54.830Z,17.7
2022-10-07T15:05:01.803Z,17.1
2022-10-07T15:10:08.847Z,17.2
2022-10-07T15:15:15.933Z,17.2
2022-10-07T15:20:23.279Z,17
2022-10-07T15:25:30.621Z,16.9
2022-10-07T15:30:38.003Z,16.6
2022-10-07T15:35:45.383Z,16.8
2022-10-07T15:40:52.736Z,18.4
2022-10-07T15:46:00.060Z,18.9
2022-10-07T15:51:07.354Z,16.2
2022-10-07T15:56:14.673Z,15
2022-10-07T16:01:22.086Z,13.9
2022-10-07T16:06:29.504Z,13.2
2022-10-07T16:11:36.951Z,12.5
2022-10-07T16:16:44.514Z,12.2
2022-10-07T16:21:52.085Z,11.7
2022-10-07T16:27:00.312Z,11.3
2022-10-07T16:32:07.034Z,10.3
2022-10-07T16:37:14.269Z,10.4
2022-10-07T16:42:21.429Z,9.8
2022-10-07T16:47:28.686Z,9.1
2022-10-07T16:52:35.957Z,8.9
2022-10-07T16:57:43.241Z,8.9
2022-10-07T17:02:50.568Z,8.4
2022-10-07T17:07:57.945Z,7.7
2022-10-07T17:13:05.263Z,7.6
2022-10-07T17:18:12.623Z,7.7
2022-10-07T17:23:20.047Z,7.8
2022-10-07T17:28:27.497Z,7.7
2022-10-07T17:33:34.994Z,7.7
2022-10-07T17:38:42.408Z,7.7
2022-10-07T17:43:49.892Z,7.6
2022-10-07T17:48:57.370Z,7.3
2022-10-07T17:54:04.836Z,7.5
2022-10-07T17:59:12.371Z,7.3
2022-10-07T18:04:19.808Z,7.3
2022-10-07T18:09:27.298Z,7.3
2022-10-07T18:14:34.768Z,7.1
2022-10-07T18:19:42.288Z,6.9
2022-10-07T18:24:49.781Z,6.8
2022-10-07T18:29:57.317Z,6.7
2022-10-07T18:35:04.857Z,6.7
2022-10-07T18:40:12.416Z,6.5
2022-10-07T18:45:20.124Z,6.6
2022-10-07T18:50:27.665Z,6.8
2022-10-07T18:55:35.280Z,6.7
2022-10-07T19:00:42.930Z,6.4
2022-10-07T19:05:50.556Z,6.5
2022-10-07T19:10:58.175Z,6.7
2022-10-07T19:16:05.824Z,7
2022-10-07T19:21:13.451Z,6.8
2022-10-07T19:26:21.087Z,6.5
2022-10-07T19:31:28.686Z,6.7
2022-10-07T19:36:36.298Z,7
2022-10-07T19:41:43.859Z,7.6
2022-10-07T19:46:51.611Z,8.2
2022-10-07T19:51:59.375Z,8
2022-10-07T19:57:07.104Z,8.5
2022-10-07T20:02:14.811Z,8.5
2022-10-07T20:07:22.485Z,8.4
2022-10-07T20:12:30.174Z,8.2
2022-10-07T20:17:37.877Z,8.3
2022-10-07T20:22:45.595Z,8
2022-10-07T20:27:53.290Z,7.8
2022-10-07T20:33:00.998Z,8
2022-10-07T20:38:08.706Z,8.4
2022-10-07T20:43:16.406Z,8.5
2022-10-07T20:48:24.100Z,8.2
2022-10-07T20:53:32.049Z,8.1
2022-10-07T20:58:39.934Z,8
2022-10-07T21:03:47.891Z,8
2022-10-07T21:08:55.809Z,8.2
2022-10-07T21:14:03.786Z,8.3
2022-10-07T21:19:11.686Z,8.3
2022-10-07T21:24:19.619Z,7.9
2022-10-07T21:29:27.558Z,7.8
2022-10-07T21:34:35.487Z,8
2022-10-07T21:39:43.455Z,8
2022-10-07T21:44:51.406Z,7.9
2022-10-07T21:49:59.380Z,8
2022-10-07T21:55:07.320Z,8.2
2022-10-07T22:00:15.849Z,8.1
2022-10-07T22:05:23.025Z,8
2022-10-07T22:10:30.526Z,7.9
2022-10-07T22:15:38.078Z,7.8
2022-10-07T22:20:45.597Z,7.8
2022-10-07T22:25:53.163Z,8.1
2022-10-07T22:36:08.276Z,8.1
2022-10-07T22:41:15.812Z,8.2
2022-10-07T22:46:23.382Z,8
2022-10-07T22:51:30.961Z,7.8
2022-10-07T22:56:38.459Z,8.8
2022-10-07T23:01:46.022Z,9.4
2022-10-07T23:06:53.527Z,9.8
2022-10-07T23:12:01.085Z,10.1
2022-10-07T23:17:08.597Z,10
2022-10-07T23:22:16.077Z,9.8
2022-10-07T23:27:23.611Z,9.2
2022-10-07T23:32:31.066Z,8.8
2022-10-07T23:37:38.524Z,8.8
2022-10-07T23:42:46.165Z,8.8
2022-10-07T23:47:53.534Z,9
2022-10-07T23:53:01.051Z,8.7
2022-10-07T23:58:08.459Z,8.8
